createdAt,value
2023-02-27T00:01:24.662Z,9.93
2023-02-27T00:03:52.492Z,9.35
2023-02-27T00:06:19.991Z,9.02
2023-02-27T00:08:47.582Z,9.38
2023-02-27T00:11:15.614Z,8.55
2023-02-27T00:13:43.236Z,10.40
2023-02-27T00:16:12.872Z,8.38
2023-02-27T00:18:40.649Z,9.48
2023-02-27T00:21:08.407Z,9.88
2023-02-27T00:23:36.020Z,9.75
2023-02-27T00:26:04.198Z,10.60
2023-02-27T00:28:31.897Z,8.48
2023-02-27T00:30:59.638Z,10.90
2023-02-27T00:33:27.945Z,8.68
2023-02-27T00:36:01.207Z,9.70
2023-02-27T00:38:29.387Z,9.93
2023-02-27T00:40:59.474Z,8.85
2023-02-27T00:43:27.593Z,11.95
2023-02-27T00:45:55.184Z,8.73
2023-02-27T00:48:22.714Z,8.95
2023-02-27T00:50:50.813Z,8.18
2023-02-27T00:53:18.527Z,10.32
2023-02-27T00:55:46.076Z,11.07
2023-02-27T00:58:13.831Z,12.30
2023-02-27T01:00:41.505Z,8.18
2023-02-27T01:03:09.196Z,8.27
2023-02-27T01:05:36.828Z,10.63
2023-02-27T01:08:04.723Z,11.20
2023-02-27T01:10:32.329Z,8.35
2023-02-27T01:12:59.951Z,7.03
2023-02-27T01:15:27.532Z,8.40
2023-02-27T01:17:55.306Z,9.32
2023-02-27T01:20:22.943Z,8.95
2023-02-27T01:22:50.552Z,7.35
2023-02-27T01:25:18.239Z,7.60
2023-02-27T01:27:45.877Z,8.13
2023-02-27T01:30:15.852Z,8.48
2023-02-27T01:35:13.136Z,8.95
2023-02-27T01:37:40.740Z,7.80
2023-02-27T01:40:09.712Z,8.82
2023-02-27T01:42:37.475Z,10.73
2023-02-27T01:45:11.339Z,10.40
2023-02-27T01:47:50.093Z,9.02
2023-02-27T01:50:20.208Z,7.93
2023-02-27T01:52:56.403Z,10.25
2023-02-27T01:55:27.756Z,9.15
2023-02-27T01:57:56.949Z,9.82
2023-02-27T02:00:26.429Z,7.85
2023-02-27T02:03:07.114Z,9.70
2023-02-27T02:05:35.715Z,12.00
2023-02-27T02:08:05.484Z,7.45
2023-02-27T02:10:33.351Z,9.38
2023-02-27T02:13:01.402Z,8.55
2023-02-27T02:15:37.469Z,6.50
2023-02-27T02:18:37.336Z,9.18
2023-02-27T02:21:57.661Z,9.25
2023-02-27T02:25:23.038Z,7.53
2023-02-27T02:28:32.270Z,8.05
2023-02-27T02:31:29.496Z,12.90
2023-02-27T02:34:31.130Z,9.45
2023-02-27T02:38:00.166Z,8.30
2023-02-27T02:40:33.758Z,8.45
2023-02-27T02:43:37.653Z,6.07
2023-02-27T02:46:38.593Z,10.25
2023-02-27T02:49:36.216Z,7.38
2023-02-27T02:52:47.166Z,12.32
2023-02-27T02:55:29.261Z,8.63
2023-02-27T02:58:11.840Z,7.80
2023-02-27T03:00:55.355Z,8.00
2023-02-27T03:03:31.187Z,8.55
2023-02-27T03:06:18.525Z,8.18
2023-02-27T03:08:57.576Z,8.50
2023-02-27T03:11:31.922Z,7.38
2023-02-27T03:14:29.922Z,10.60
2023-02-27T03:17:07.684Z,9.07
2023-02-27T03:19:53.480Z,9.27
2023-02-27T03:22:47.159Z,7.00
2023-02-27T03:25:17.049Z,6.13
2023-02-27T03:28:00.055Z,9.30
2023-02-27T03:31:11.524Z,9.95
2023-02-27T03:33:52.634Z,8.80
2023-02-27T03:37:14.156Z,10.80
2023-02-27T03:39:59.453Z,9.07
2023-02-27T03:43:14.217Z,8.43
2023-02-27T03:46:03.106Z,12.18
2023-02-27T03:48:34.626Z,7.45
2023-02-27T03:51:02.562Z,9.25
2023-02-27T03:54:07.550Z,5.95
2023-02-27T03:56:46.078Z,9.30
2023-02-27T03:59:15.224Z,6.82
2023-02-27T04:01:49.625Z,10.65
2023-02-27T04:04:18.533Z,11.07
2023-02-27T04:07:22.964Z,9.43
2023-02-27T04:10:24.301Z,9.27
2023-02-27T04:13:22.830Z,6.70
2023-02-27T04:16:40.381Z,7.25
2023-02-27T04:19:34.110Z,6.70
2023-02-27T04:22:56.237Z,9.40
2023-02-27T04:25:56.267Z,9.63
2023-02-27T04:28:36.944Z,9.02
2023-02-27T04:31:28.724Z,12.07
2023-02-27T04:37:30.624Z,10.23
2023-02-27T04:40:07.644Z,8.35
2023-02-27T04:42:47.209Z,9.13
2023-02-27T04:45:24.247Z,8.30
2023-02-27T04:48:01.735Z,9.80
2023-02-27T04:50:39.986Z,7.95
2023-02-27T04:53:20.365Z,11.75
2023-02-27T04:55:55.855Z,9.90
2023-02-27T04:58:33.635Z,8.70
2023-02-27T05:01:16.725Z,9.98
2023-02-27T05:03:51.058Z,9.98
2023-02-27T05:06:23.987Z,8.30
2023-02-27T05:09:15.356Z,11.35
2023-02-27T05:12:05.578Z,5.50
2023-02-27T05:14:46.222Z,8.48
2023-02-27T05:17:32.990Z,9.77
2023-02-27T05:20:01.873Z,8.80
2023-02-27T05:22:51.525Z,10.43
2023-02-27T05:25:35.854Z,7.90
2023-02-27T05:28:15.414Z,8.52
2023-02-27T05:31:08.510Z,8.48
2023-02-27T05:33:55.749Z,7.40
2023-02-27T05:36:42.001Z,8.65
2023-02-27T05:39:12.350Z,10.30
2023-02-27T05:41:50.725Z,10.98
2023-02-27T05:44:33.445Z,9.98
2023-02-27T05:47:10.697Z,10.95
2023-02-27T05:49:49.190Z,12.60
2023-02-27T05:52:24.049Z,10.45
2023-02-27T05:55:02.083Z,10.80
2023-02-27T05:57:43.833Z,10.05
2023-02-27T06:00:21.543Z,11.05
2023-02-27T06:02:49.698Z,11.20
2023-02-27T06:05:23.209Z,10.15
2023-02-27T06:07:51.765Z,9.65
2023-02-27T06:10:22.230Z,10.82
2023-02-27T06:12:49.904Z,11.93
2023-02-27T06:15:18.814Z,9.68
2023-02-27T06:20:17.111Z,10.32
2023-02-27T06:22:44.785Z,11.45
2023-02-27T06:25:13.307Z,10.38
2023-02-27T06:27:40.838Z,9.55
2023-02-27T06:30:09.429Z,9.15
2023-02-27T06:32:36.963Z,9.23
2023-02-27T06:35:06.352Z,9.25
2023-02-27T06:37:34.007Z,11.25
2023-02-27T06:40:01.689Z,11.10
2023-02-27T06:42:29.413Z,10.57
2023-02-27T06:44:59.543Z,10.60
2023-02-27T06:47:27.187Z,9.35
2023-02-27T06:49:54.743Z,11.20
2023-02-27T06:52:22.535Z,11.95
2023-02-27T06:54:50.147Z,11.98
2023-02-27T06:57:17.891Z,11.27
2023-02-27T06:59:45.648Z,14.40
2023-02-27T07:02:15.452Z,14.65
2023-02-27T07:04:43.332Z,10.38
2023-02-27T07:07:34.631Z,10.38
2023-02-27T07:09:58.897Z,14.13
2023-02-27T07:12:26.682Z,11.98
2023-02-27T07:14:54.265Z,11.38
2023-02-27T07:17:22.484Z,12.50
2023-02-27T07:19:50.079Z,12.45
2023-02-27T07:22:20.640Z,13.18
2023-02-27T07:24:48.230Z,12.30
2023-02-27T07:27:15.827Z,12.20
2023-02-27T07:29:43.473Z,14.95
2023-02-27T07:32:11.332Z,9.27
2023-02-27T07:34:39.171Z,12.68
2023-02-27T07:37:06.792Z,14.88
2023-02-27T07:39:34.520Z,14.13
2023-02-27T07:42:02.214Z,13.45
2023-02-27T07:44:30.217Z,12.55
2023-02-27T07:46:57.836Z,11.90
2023-02-27T07:49:25.500Z,11.55
2023-02-27T07:51:53.239Z,11.13
2023-02-27T07:54:20.777Z,12.93
2023-02-27T07:56:48.408Z,10.07
2023-02-27T07:59:15.997Z,8.15
2023-02-27T08:01:43.524Z,10.48
2023-02-27T08:04:11.230Z,12.45
2023-02-27T08:06:38.855Z,12.15
2023-02-27T08:09:06.546Z,10.45
2023-02-27T08:11:34.172Z,9.23
2023-02-27T08:14:02.812Z,11.30
2023-02-27T08:16:32.094Z,8.50
2023-02-27T08:19:01.351Z,12.90
2023-02-27T08:21:30.463Z,11.32
2023-02-27T08:23:58.448Z,9.73
2023-02-27T08:26:26.524Z,10.48
2023-02-27T08:28:54.298Z,9.82
2023-02-27T08:31:22.005Z,8.82
2023-02-27T08:33:58.023Z,7.78
2023-02-27T08:36:36.305Z,10.15
2023-02-27T08:39:04.985Z,9.48
2023-02-27T08:41:32.755Z,8.70
2023-02-27T08:44:00.979Z,10.18
2023-02-27T08:46:29.086Z,8.70
2023-02-27T08:48:56.857Z,11.00
2023-02-27T08:51:24.471Z,8.30
2023-02-27T08:53:53.024Z,10.40
2023-02-27T08:56:20.590Z,10.30
2023-02-27T08:58:48.266Z,10.38
2023-02-27T09:01:16.028Z,10.18
2023-02-27T09:03:43.602Z,7.72
2023-02-27T09:06:11.625Z,8.68
2023-02-27T09:08:39.483Z,9.75
2023-02-27T09:11:07.677Z,9.50
2023-02-27T09:13:35.292Z,6.18
2023-02-27T09:16:02.973Z,7.07
2023-02-27T09:18:30.660Z,6.93
2023-02-27T09:20:58.485Z,7.10
2023-02-27T09:23:26.034Z,7.53
2023-02-27T09:25:53.961Z,10.75
2023-02-27T09:28:21.666Z,5.78
2023-02-27T09:30:49.264Z,8.27
2023-02-27T09:33:16.876Z,9.10
2023-02-27T09:35:44.644Z,11.75
2023-02-27T09:38:12.346Z,7.72
2023-02-27T09:40:43.369Z,7.82
2023-02-27T09:43:44.248Z,8.77
2023-02-27T09:46:19.683Z,7.50
2023-02-27T09:49:01.918Z,6.03
2023-02-27T09:51:29.948Z,7.38
2023-02-27T09:54:02.725Z,5.65
2023-02-27T09:56:39.552Z,7.00
2023-02-27T09:59:36.972Z,6.00
2023-02-27T10:02:42.902Z,6.22
2023-02-27T10:06:00.437Z,7.03
2023-02-27T10:08:38.835Z,5.95
2023-02-27T10:11:12.970Z,9.57
2023-02-27T10:14:01.364Z,6.22
2023-02-27T10:16:34.200Z,6.15
2023-02-27T10:19:19.406Z,6.25
2023-02-27T10:21:53.263Z,4.60
2023-02-27T10:24:39.036Z,6.20
2023-02-27T10:27:17.688Z,6.18
2023-02-27T10:29:46.133Z,8.55
2023-02-27T10:32:22.612Z,5.22
2023-02-27T10:35:22.870Z,6.03
2023-02-27T10:38:00.882Z,4.53
2023-02-27T10:40:30.482Z,4.82
2023-02-27T10:43:03.259Z,6.20
2023-02-27T10:45:32.223Z,5.47
2023-02-27T10:48:02.901Z,7.72
2023-02-27T10:50:40.106Z,5.53
2023-02-27T10:53:26.049Z,5.90
2023-02-27T10:56:05.566Z,6.25
2023-02-27T10:58:38.063Z,5.13
2023-02-27T11:01:10.581Z,6.25
2023-02-27T11:03:44.456Z,6.95
2023-02-27T11:06:26.091Z,6.20
2023-02-27T11:09:20.990Z,6.57
2023-02-27T11:15:38.617Z,5.68
2023-02-27T11:18:31.550Z,6.25
2023-02-27T11:21:30.702Z,7.07
2023-02-27T11:24:08.798Z,7.93
2023-02-27T11:27:06.303Z,5.07
2023-02-27T11:29:34.856Z,5.40
2023-02-27T11:32:13.525Z,4.78
2023-02-27T11:34:49.968Z,6.75
2023-02-27T11:37:36.518Z,5.43
2023-02-27T11:40:10.611Z,4.18
2023-02-27T11:42:44.594Z,7.85
2023-02-27T11:46:17.855Z,5.30
2023-02-27T11:48:21.760Z,5.03
2023-02-27T11:51:06.605Z,5.47
2023-02-27T11:54:04.812Z,7.85
2023-02-27T11:56:52.251Z,5.40
2023-02-27T11:59:19.816Z,6.25
2023-02-27T12:02:03.479Z,5.68
2023-02-27T12:04:51.080Z,9.93
2023-02-27T12:07:27.830Z,5.93
2023-02-27T12:10:13.064Z,4.57
2023-02-27T12:12:58.312Z,6.28
2023-02-27T12:15:50.234Z,6.22
2023-02-27T12:21:32.238Z,5.13
2023-02-27T12:24:26.407Z,4.25
2023-02-27T12:27:21.391Z,4.07
2023-02-27T12:30:19.184Z,5.78
2023-02-27T12:33:13.347Z,4.65
2023-02-27T12:35:44.793Z,3.72
2023-02-27T12:38:15.345Z,3.00
2023-02-27T12:43:39.240Z,4.63
2023-02-27T12:46:32.340Z,3.53
2023-02-27T12:49:15.166Z,6.05
2023-02-27T12:52:32.846Z,3.40
2023-02-27T12:55:09.981Z,6.05
2023-02-27T12:57:59.962Z,4.85
2023-02-27T13:00:46.407Z,3.70
2023-02-27T13:03:40.964Z,4.82
2023-02-27T13:06:29.497Z,4.50
2023-02-27T13:09:16.680Z,5.45
2023-02-27T13:12:05.053Z,4.55
2023-02-27T13:14:49.166Z,4.53
2023-02-27T13:17:48.632Z,4.50
2023-02-27T13:20:22.328Z,5.53
2023-02-27T13:23:25.356Z,4.07
2023-02-27T13:25:57.640Z,3.63
2023-02-27T13:28:29.455Z,3.45
2023-02-27T13:31:29.746Z,4.97
2023-02-27T13:34:12.857Z,4.65
2023-02-27T13:36:57.237Z,4.65
2023-02-27T13:39:53.229Z,3.88
2023-02-27T13:42:26.963Z,3.50
2023-02-27T13:45:03.875Z,4.35
2023-02-27T13:47:31.447Z,5.68
2023-02-27T13:50:25.480Z,4.13
2023-02-27T13:52:53.518Z,5.07
2023-02-27T13:55:37.767Z,3.78
2023-02-27T13:58:05.969Z,5.65
2023-02-27T14:00:38.017Z,2.55
2023-02-27T14:03:05.652Z,5.28
2023-02-27T14:05:39.723Z,4.40
2023-02-27T14:08:19.609Z,4.63
2023-02-27T14:11:16.847Z,4.18
2023-02-27T14:13:50.425Z,4.88
2023-02-27T14:16:44.220Z,3.60
2023-02-27T14:19:22.765Z,4.63
2023-02-27T14:22:27.239Z,3.47
2023-02-27T14:25:06.555Z,3.83
2023-02-27T14:27:51.827Z,3.63
2023-02-27T14:30:54.038Z,5.43
2023-02-27T14:36:27.988Z,3.25
2023-02-27T14:38:59.034Z,4.80
2023-02-27T14:41:44.986Z,4.20
2023-02-27T14:44:27.936Z,4.20
2023-02-27T14:46:58.607Z,6.13
2023-02-27T14:49:34.537Z,2.90
2023-02-27T14:52:25.376Z,5.90
2023-02-27T14:55:05.853Z,4.20
2023-02-27T14:57:34.996Z,4.15
2023-02-27T15:00:05.175Z,3.63
2023-02-27T15:02:37.736Z,5.00
2023-02-27T15:05:05.193Z,5.93
2023-02-27T15:07:35.472Z,6.22
2023-02-27T15:10:08.284Z,7.75
2023-02-27T15:12:40.215Z,4.72
2023-02-27T15:15:19.563Z,4.57
2023-02-27T15:17:47.583Z,3.75
2023-02-27T15:20:33.457Z,4.22
2023-02-27T15:23:22.051Z,4.75
2023-02-27T15:25:50.145Z,5.25
2023-02-27T15:28:26.333Z,6.30
2023-02-27T15:30:56.676Z,3.47
2023-02-27T15:33:29.964Z,4.70
2023-02-27T15:35:59.213Z,6.57
2023-02-27T15:38:42.173Z,5.63
2023-02-27T15:41:14.404Z,7.90
2023-02-27T15:43:44.781Z,5.35
2023-02-27T15:46:12.504Z,5.03
2023-02-27T15:48:40.243Z,4.82
2023-02-27T15:51:14.582Z,5.28
2023-02-27T15:53:49.818Z,4.43
2023-02-27T15:56:28.860Z,5.35
2023-02-27T15:59:01.110Z,4.50
2023-02-27T16:01:33.220Z,4.75
2023-02-27T16:04:20.612Z,3.72
2023-02-27T16:07:10.789Z,3.85
2023-02-27T16:09:38.648Z,6.15
2023-02-27T16:12:40.795Z,5.65
2023-02-27T16:17:58.482Z,4.13
2023-02-27T16:20:44.690Z,4.60
2023-02-27T16:23:28.104Z,4.45
2023-02-27T16:26:29.174Z,4.95
2023-02-27T16:29:03.934Z,4.17
2023-02-27T16:31:40.742Z,5.22
2023-02-27T16:34:44.605Z,3.97
2023-02-27T16:37:31.781Z,4.90
2023-02-27T16:39:59.345Z,5.30
2023-02-27T16:42:27.385Z,6.28
2023-02-27T16:44:55.091Z,8.90
2023-02-27T16:47:23.038Z,5.90
2023-02-27T16:49:51.363Z,6.72
2023-02-27T16:52:18.982Z,5.72
2023-02-27T16:54:53.259Z,6.55
2023-02-27T16:57:25.029Z,5.32
2023-02-27T16:59:52.745Z,5.78
2023-02-27T17:02:20.563Z,4.45
2023-02-27T17:04:49.946Z,5.90
2023-02-27T17:07:22.837Z,5.45
2023-02-27T17:09:51.292Z,6.45
2023-02-27T17:12:18.929Z,7.60
2023-02-27T17:14:46.550Z,6.72
2023-02-27T17:17:14.189Z,5.40
2023-02-27T17:19:41.764Z,7.95
2023-02-27T17:22:09.356Z,6.13
2023-02-27T17:24:38.338Z,5.32
2023-02-27T17:27:07.331Z,5.63
2023-02-27T17:29:38.624Z,4.05
2023-02-27T17:32:09.755Z,4.82
2023-02-27T17:37:05.578Z,6.90
2023-02-27T17:39:33.525Z,7.25
2023-02-27T17:42:04.184Z,6.07
2023-02-27T17:44:31.949Z,5.75
2023-02-27T17:46:59.794Z,7.30
2023-02-27T17:49:27.410Z,5.85
2023-02-27T17:51:54.976Z,7.88
2023-02-27T17:54:22.599Z,4.85
2023-02-27T17:56:50.182Z,5.53
2023-02-27T17:59:18.007Z,7.40
2023-02-27T18:01:45.856Z,9.18
2023-02-27T18:04:14.053Z,7.40
2023-02-27T18:06:41.841Z,6.88
2023-02-27T18:09:09.768Z,8.32
2023-02-27T18:11:41.069Z,9.38
2023-02-27T18:14:09.028Z,8.48
2023-02-27T18:16:36.857Z,8.43
2023-02-27T18:19:06.567Z,7.32
2023-02-27T18:21:34.906Z,5.85
2023-02-27T18:24:02.893Z,6.47
2023-02-27T18:26:33.237Z,8.00
2023-02-27T18:29:06.011Z,6.65
2023-02-27T18:31:38.970Z,6.57
2023-02-27T18:34:07.780Z,7.30
2023-02-27T18:36:36.468Z,6.70
2023-02-27T18:39:06.094Z,8.48
2023-02-27T18:41:34.974Z,8.02
2023-02-27T18:44:04.411Z,8.18
2023-02-27T18:46:33.136Z,16.00
2023-02-27T18:49:01.876Z,7.85
2023-02-27T18:51:30.225Z,7.00
2023-02-27T18:54:00.118Z,6.75
2023-02-27T18:56:30.982Z,10.52
2023-02-27T18:59:05.319Z,9.68
2023-02-27T19:01:38.319Z,9.25
2023-02-27T19:04:08.229Z,6.95
2023-02-27T19:06:40.939Z,8.85
2023-02-27T19:09:13.157Z,8.15
2023-02-27T19:11:40.893Z,7.13
2023-02-27T19:14:13.026Z,9.35
2023-02-27T19:16:40.814Z,9.90
2023-02-27T19:19:09.922Z,8.77
2023-02-27T19:21:38.159Z,8.10
2023-02-27T19:24:06.934Z,7.78
2023-02-27T19:26:35.163Z,7.93
2023-02-27T19:29:03.665Z,10.15
2023-02-27T19:31:31.899Z,9.35
2023-02-27T19:34:02.143Z,7.15
2023-02-27T19:36:31.632Z,7.63
2023-02-27T19:39:00.436Z,8.10
2023-02-27T19:41:45.885Z,9.77
2023-02-27T19:44:13.802Z,8.45
2023-02-27T19:46:42.202Z,8.40
2023-02-27T19:49:53.052Z,9.57
2023-02-27T19:52:26.489Z,8.52
2023-02-27T19:54:54.499Z,9.23
2023-02-27T19:57:22.205Z,11.23
2023-02-27T19:59:49.922Z,8.38
2023-02-27T20:02:17.794Z,8.88
2023-02-27T20:04:45.605Z,10.88
2023-02-27T20:07:14.229Z,9.48
2023-02-27T20:09:41.945Z,11.02
2023-02-27T20:12:12.289Z,11.93
2023-02-27T20:14:40.657Z,10.43
2023-02-27T20:17:08.418Z,10.18
2023-02-27T20:19:36.674Z,10.18
2023-02-27T20:22:05.025Z,9.82
2023-02-27T20:24:32.759Z,10.63
2023-02-27T20:27:00.447Z,8.70
2023-02-27T20:29:28.342Z,11.02
2023-02-27T20:31:57.325Z,9.07
2023-02-27T20:34:26.517Z,12.45
2023-02-27T20:36:56.142Z,10.68
2023-02-27T20:39:25.353Z,11.07
2023-02-27T20:41:53.012Z,10.25
2023-02-27T20:44:20.693Z,11.02
2023-02-27T20:46:49.606Z,12.43
2023-02-27T20:49:17.878Z,12.57
2023-02-27T20:51:45.564Z,12.98
2023-02-27T20:54:20.055Z,13.07
2023-02-27T20:56:54.417Z,12.70
2023-02-27T20:59:25.279Z,13.90
2023-02-27T21:01:56.326Z,11.55
2023-02-27T21:04:42.943Z,17.60
2023-02-27T21:07:17.775Z,14.68
2023-02-27T21:09:45.753Z,15.90
2023-02-27T21:12:17.376Z,15.27
2023-02-27T21:14:45.321Z,16.23
2023-02-27T21:17:14.006Z,14.77
2023-02-27T21:19:42.159Z,13.25
2023-02-27T21:22:11.347Z,15.15
2023-02-27T21:24:39.126Z,13.80
2023-02-27T21:27:06.877Z,14.05
2023-02-27T21:29:34.752Z,13.68
2023-02-27T21:32:02.531Z,15.27
2023-02-27T21:34:30.392Z,16.02
2023-02-27T21:37:01.773Z,16.30
2023-02-27T21:39:29.596Z,13.23
2023-02-27T21:41:59.626Z,15.68
2023-02-27T21:44:27.443Z,14.20
2023-02-27T21:46:55.817Z,15.52
2023-02-27T21:49:28.474Z,14.43
2023-02-27T21:51:57.073Z,14.63
2023-02-27T21:54:24.846Z,15.20
2023-02-27T21:56:52.581Z,14.82
2023-02-27T21:59:21.770Z,17.40
2023-02-27T22:01:49.481Z,16.08
2023-02-27T22:04:20.149Z,17.02
2023-02-27T22:06:50.407Z,17.42
2023-02-27T22:09:19.042Z,16.17
2023-02-27T22:11:47.410Z,14.55
2023-02-27T22:14:18.591Z,16.65
2023-02-27T22:16:46.242Z,15.98
2023-02-27T22:19:22.006Z,15.18
2023-02-27T22:21:49.849Z,14.15
2023-02-27T22:24:18.273Z,13.85
2023-02-27T22:26:47.634Z,12.05
2023-02-27T22:29:15.282Z,14.23
2023-02-27T22:31:44.158Z,13.75
2023-02-27T22:34:18.342Z,15.13
2023-02-27T22:36:52.720Z,16.27
2023-02-27T22:39:21.607Z,13.27
2023-02-27T22:41:49.703Z,17.35
2023-02-27T22:44:17.621Z,13.80
2023-02-27T22:46:49.288Z,13.00
2023-02-27T22:51:50.750Z,13.02
2023-02-27T22:54:22.016Z,15.43
2023-02-27T22:56:52.659Z,14.67
2023-02-27T22:59:22.663Z,14.13
2023-02-27T23:01:50.831Z,14.80
2023-02-27T23:04:18.805Z,16.10
2023-02-27T23:06:46.400Z,14.85
2023-02-27T23:09:24.139Z,15.75
2023-02-27T23:11:52.314Z,14.27
2023-02-27T23:14:21.825Z,13.30
2023-02-27T23:16:51.012Z,14.68
2023-02-27T23:19:21.421Z,13.30
2023-02-27T23:21:49.180Z,13.27
2023-02-27T23:24:19.633Z,14.32
2023-02-27T23:26:51.035Z,12.45
2023-02-27T23:29:19.312Z,16.30
2023-02-27T23:31:48.092Z,13.45
2023-02-27T23:34:16.564Z,15.45
2023-02-27T23:36:44.036Z,13.88
2023-02-27T23:39:11.465Z,13.63
2023-02-27T23:41:39.246Z,13.20
2023-02-27T23:44:06.742Z,13.57
2023-02-27T23:46:34.213Z,11.88
2023-02-27T23:49:02.117Z,13.63
2023-02-27T23:51:31.138Z,14.90
2023-02-27T23:53:59.660Z,13.20
2023-02-27T23:56:30.165Z,14.20
2023-02-27T23:59:02.475Z,12.85
